sensor_id;sensor_type;location;lat;lon;timestamp;P1;durP1;ratioP1;P2;durP2;ratioP2
16272;SDS011;8244;50.044;9.006;2024-02-15T00:02:33;8.60;;;5.30;;
16272;SDS011;8244;50.044;9.006;2024-02-15T00:07:36;8.13;;;5.45;;
16272;SDS011;8244;50.044;9.006;2024-02-15T00:12:38;7.85;;;5.00;;
16272;SDS011;8244;50.044;9.006;2024-02-15T00:17:40;10.90;;;5.63;;
16272;SDS011;8244;50.044;9.006;2024-02-15T00:22:43;7.25;;;5.13;;
16272;SDS011;8244;50.044;9.006;2024-02-15T00:27:45;9.48;;;5.30;;
16272;SDS011;8244;50.044;9.006;2024-02-15T00:32:46;8.82;;;4.88;;
16272;SDS011;8244;50.044;9.006;2024-02-15T00:37:50;8.02;;;5.00;;
16272;SDS011;8244;50.044;9.006;2024-02-15T00:42:52;8.45;;;4.82;;
16272;SDS011;8244;50.044;9.006;2024-02-15T00:47:53;8.95;;;4.97;;
16272;SDS011;8244;50.044;9.006;2024-02-15T00:52:57;8.75;;;4.70;;
16272;SDS011;8244;50.044;9.006;2024-02-15T00:57:59;10.48;;;4.75;;
16272;SDS011;8244;50.044;9.006;2024-02-15T01:03:00;9.32;;;4.93;;
16272;SDS011;8244;50.044;9.006;2024-02-15T01:08:04;12.55;;;7.18;;
16272;SDS011;8244;50.044;9.006;2024-02-15T01:13:06;10.80;;;7.10;;
16272;SDS011;8244;50.044;9.006;2024-02-15T01:18:08;9.82;;;6.57;;
16272;SDS011;8244;50.044;9.006;2024-02-15T01:23:11;9.18;;;6.25;;
16272;SDS011;8244;50.044;9.006;2024-02-15T01:28:13;10.43;;;6.38;;
16272;SDS011;8244;50.044;9.006;2024-02-15T01:33:15;10.40;;;6.03;;
16272;SDS011;8244;50.044;9.006;2024-02-15T01:38:18;10.55;;;6.05;;
16272;SDS011;8244;50.044;9.006;2024-02-15T01:43:20;10.25;;;6.03;;
16272;SDS011;8244;50.044;9.006;2024-02-15T01:48:22;8.80;;;5.18;;
16272;SDS011;8244;50.044;9.006;2024-02-15T01:53:25;7.30;;;4.95;;
16272;SDS011;8244;50.044;9.006;2024-02-15T01:58:28;12.43;;;5.75;;
16272;SDS011;8244;50.044;9.006;2024-02-15T02:03:32;9.20;;;5.50;;
16272;SDS011;8244;50.044;9.006;2024-02-15T02:08:35;10.95;;;5.35;;
16272;SDS011;8244;50.044;9.006;2024-02-15T02:13:36;11.02;;;5.38;;
16272;SDS011;8244;50.044;9.006;2024-02-15T02:18:38;9.63;;;4.80;;
16272;SDS011;8244;50.044;9.006;2024-02-15T02:23:41;8.93;;;4.70;;
16272;SDS011;8244;50.044;9.006;2024-02-15T02:28:49;9.68;;;4.80;;
16272;SDS011;8244;50.044;9.006;2024-02-15T02:33:53;8.48;;;4.50;;
16272;SDS011;8244;50.044;9.006;2024-02-15T02:38:55;11.63;;;4.93;;
16272;SDS011;8244;50.044;9.006;2024-02-15T02:44:01;11.57;;;5.05;;
16272;SDS011;8244;50.044;9.006;2024-02-15T02:49:03;10.50;;;5.03;;
16272;SDS011;8244;50.044;9.006;2024-02-15T02:54:05;10.70;;;4.85;;
16272;SDS011;8244;50.044;9.006;2024-02-15T02:59:08;10.90;;;5.40;;
16272;SDS011;8244;50.044;9.006;2024-02-15T03:04:10;10.02;;;5.68;;
16272;SDS011;8244;50.044;9.006;2024-02-15T03:09:12;6.95;;;4.97;;
16272;SDS011;8244;50.044;9.006;2024-02-15T03:14:15;11.10;;;6.05;;
16272;SDS011;8244;50.044;9.006;2024-02-15T03:19:17;12.15;;;5.93;;
16272;SDS011;8244;50.044;9.006;2024-02-15T03:24:19;10.68;;;5.72;;
16272;SDS011;8244;50.044;9.006;2024-02-15T03:29:22;13.00;;;6.18;;
16272;SDS011;8244;50.044;9.006;2024-02-15T03:34:25;11.75;;;6.03;;
16272;SDS011;8244;50.044;9.006;2024-02-15T03:39:26;9.90;;;5.65;;
16272;SDS011;8244;50.044;9.006;2024-02-15T03:44:29;8.82;;;5.72;;
16272;SDS011;8244;50.044;9.006;2024-02-15T03:49:31;11.05;;;5.57;;
16272;SDS011;8244;50.044;9.006;2024-02-15T03:54:33;8.18;;;4.78;;
16272;SDS011;8244;50.044;9.006;2024-02-15T03:59:36;11.57;;;5.60;;
16272;SDS011;8244;50.044;9.006;2024-02-15T04:04:38;11.73;;;5.47;;
16272;SDS011;8244;50.044;9.006;2024-02-15T04:09:42;12.00;;;5.50;;
16272;SDS011;8244;50.044;9.006;2024-02-15T04:14:45;9.10;;;5.30;;
16272;SDS011;8244;50.044;9.006;2024-02-15T04:19:47;8.50;;;4.88;;
16272;SDS011;8244;50.044;9.006;2024-02-15T04:24:50;12.23;;;5.13;;
16272;SDS011;8244;50.044;9.006;2024-02-15T04:29:53;10.05;;;5.28;;
16272;SDS011;8244;50.044;9.006;2024-02-15T04:34:55;11.07;;;5.18;;
16272;SDS011;8244;50.044;9.006;2024-02-15T04:39:56;9.35;;;5.03;;
16272;SDS011;8244;50.044;9.006;2024-02-15T04:44:59;9.48;;;4.65;;
16272;SDS011;8244;50.044;9.006;2024-02-15T04:50:01;8.85;;;5.03;;
16272;SDS011;8244;50.044;9.006;2024-02-15T04:55:06;11.07;;;4.60;;
16272;SDS011;8244;50.044;9.006;2024-02-15T05:00:10;8.85;;;4.57;;
16272;SDS011;8244;50.044;9.006;2024-02-15T05:05:15;11.27;;;4.57;;
16272;SDS011;8244;50.044;9.006;2024-02-15T05:10:17;11.38;;;5.10;;
16272;SDS011;8244;50.044;9.006;2024-02-15T05:15:20;11.98;;;4.63;;
16272;SDS011;8244;50.044;9.006;2024-02-15T05:20:25;11.32;;;4.68;;
16272;SDS011;8244;50.044;9.006;2024-02-15T05:25:27;7.18;;;4.00;;
16272;SDS011;8244;50.044;9.006;2024-02-15T05:30:31;11.38;;;4.40;;
16272;SDS011;8244;50.044;9.006;2024-02-15T05:35:33;7.75;;;4.13;;
16272;SDS011;8244;50.044;9.006;2024-02-15T05:40:36;10.00;;;4.22;;
16272;SDS011;8244;50.044;9.006;2024-02-15T05:45:39;8.93;;;4.70;;
16272;SDS011;8244;50.044;9.006;2024-02-15T05:50:41;8.70;;;4.60;;
16272;SDS011;8244;50.044;9.006;2024-02-15T05:55:42;8.02;;;4.40;;
16272;SDS011;8244;50.044;9.006;2024-02-15T06:00:46;12.65;;;6.15;;
16272;SDS011;8244;50.044;9.006;2024-02-15T06:05:49;15.13;;;7.50;;
16272;SDS011;8244;50.044;9.006;2024-02-15T06:10:51;17.10;;;10.27;;
16272;SDS011;8244;50.044;9.006;2024-02-15T06:15:55;10.13;;;4.93;;
16272;SDS011;8244;50.044;9.006;2024-02-15T06:20:56;10.68;;;4.93;;
16272;SDS011;8244;50.044;9.006;2024-02-15T06:25:59;12.52;;;4.78;;
16272;SDS011;8244;50.044;9.006;2024-02-15T06:31:04;12.50;;;8.10;;
16272;SDS011;8244;50.044;9.006;2024-02-15T06:36:23;11.63;;;5.50;;
16272;SDS011;8244;50.044;9.006;2024-02-15T06:41:42;11.95;;;6.10;;
16272;SDS011;8244;50.044;9.006;2024-02-15T06:46:45;17.17;;;6.95;;
16272;SDS011;8244;50.044;9.006;2024-02-15T06:51:47;15.80;;;7.47;;
16272;SDS011;8244;50.044;9.006;2024-02-15T06:56:49;11.90;;;5.35;;
16272;SDS011;8244;50.044;9.006;2024-02-15T07:01:53;8.02;;;4.30;;
16272;SDS011;8244;50.044;9.006;2024-02-15T07:06:55;11.15;;;5.05;;
16272;SDS011;8244;50.044;9.006;2024-02-15T07:11:57;13.90;;;4.88;;
16272;SDS011;8244;50.044;9.006;2024-02-15T07:17:00;10.60;;;4.93;;
16272;SDS011;8244;50.044;9.006;2024-02-15T07:22:02;11.35;;;4.40;;
16272;SDS011;8244;50.044;9.006;2024-02-15T07:27:04;12.25;;;4.53;;
16272;SDS011;8244;50.044;9.006;2024-02-15T07:32:07;10.13;;;4.97;;
16272;SDS011;8244;50.044;9.006;2024-02-15T07:37:09;13.18;;;5.28;;
16272;SDS011;8244;50.044;9.006;2024-02-15T07:42:13;12.48;;;5.88;;
16272;SDS011;8244;50.044;9.006;2024-02-15T07:47:17;40.00;;;19.58;;
16272;SDS011;8244;50.044;9.006;2024-02-15T07:52:24;39.95;;;18.27;;
16272;SDS011;8244;50.044;9.006;2024-02-15T07:57:26;27.65;;;13.80;;
16272;SDS011;8244;50.044;9.006;2024-02-15T08:02:30;15.82;;;9.27;;
16272;SDS011;8244;50.044;9.006;2024-02-15T08:07:33;13.68;;;5.57;;
16272;SDS011;8244;50.044;9.006;2024-02-15T08:12:36;12.15;;;4.68;;
16272;SDS011;8244;50.044;9.006;2024-02-15T08:17:40;8.73;;;4.07;;
16272;SDS011;8244;50.044;9.006;2024-02-15T08:22:43;12.88;;;4.57;;
16272;SDS011;8244;50.044;9.006;2024-02-15T08:27:49;10.50;;;4.20;;
16272;SDS011;8244;50.044;9.006;2024-02-15T08:32:53;9.07;;;3.70;;
16272;SDS011;8244;50.044;9.006;2024-02-15T08:37:55;10.38;;;4.13;;
16272;SDS011;8244;50.044;9.006;2024-02-15T08:42:57;13.38;;;3.97;;
16272;SDS011;8244;50.044;9.006;2024-02-15T08:48:00;10.93;;;4.10;;
16272;SDS011;8244;50.044;9.006;2024-02-15T08:53:04;9.90;;;4.25;;
16272;SDS011;8244;50.044;9.006;2024-02-15T08:58:07;10.95;;;4.22;;
16272;SDS011;8244;50.044;9.006;2024-02-15T09:03:11;8.85;;;4.03;;
16272;SDS011;8244;50.044;9.006;2024-02-15T09:08:13;10.50;;;4.03;;
16272;SDS011;8244;50.044;9.006;2024-02-15T09:13:23;9.82;;;4.43;;
16272;SDS011;8244;50.044;9.006;2024-02-15T09:18:36;10.20;;;4.10;;
16272;SDS011;8244;50.044;9.006;2024-02-15T09:23:48;9.95;;;4.20;;
16272;SDS011;8244;50.044;9.006;2024-02-15T09:28:51;9.25;;;3.83;;
16272;SDS011;8244;50.044;9.006;2024-02-15T09:33:54;11.15;;;4.47;;
16272;SDS011;8244;50.044;9.006;2024-02-15T09:38:59;8.38;;;3.88;;
16272;SDS011;8244;50.044;9.006;2024-02-15T09:44:01;8.98;;;3.70;;
16272;SDS011;8244;50.044;9.006;2024-02-15T09:49:04;7.63;;;3.10;;
16272;SDS011;8244;50.044;9.006;2024-02-15T09:54:10;6.72;;;3.50;;
16272;SDS011;8244;50.044;9.006;2024-02-15T09:59:13;5.55;;;3.20;;
16272;SDS011;8244;50.044;9.006;2024-02-15T10:04:17;8.40;;;3.00;;
16272;SDS011;8244;50.044;9.006;2024-02-15T10:09:28;8.60;;;3.15;;
16272;SDS011;8244;50.044;9.006;2024-02-15T10:14:31;7.82;;;3.22;;
16272;SDS011;8244;50.044;9.006;2024-02-15T10:19:35;6.60;;;3.13;;
16272;SDS011;8244;50.044;9.006;2024-02-15T10:24:37;8.85;;;3.20;;
16272;SDS011;8244;50.044;9.006;2024-02-15T10:29:40;7.75;;;3.00;;
16272;SDS011;8244;50.044;9.006;2024-02-15T10:34:46;10.05;;;2.95;;
16272;SDS011;8244;50.044;9.006;2024-02-15T10:39:51;6.70;;;2.97;;
16272;SDS011;8244;50.044;9.006;2024-02-15T10:45:07;6.45;;;2.90;;
16272;SDS011;8244;50.044;9.006;2024-02-15T10:50:12;7.05;;;2.72;;
16272;SDS011;8244;50.044;9.006;2024-02-15T10:55:14;7.72;;;2.72;;
16272;SDS011;8244;50.044;9.006;2024-02-15T11:00:24;11.15;;;3.00;;
16272;SDS011;8244;50.044;9.006;2024-02-15T11:05:33;8.10;;;3.13;;
16272;SDS011;8244;50.044;9.006;2024-02-15T11:10:37;8.57;;;2.95;;
16272;SDS011;8244;50.044;9.006;2024-02-15T11:15:41;9.95;;;2.60;;
16272;SDS011;8244;50.044;9.006;2024-02-15T11:20:48;5.80;;;2.65;;
16272;SDS011;8244;50.044;9.006;2024-02-15T11:25:50;6.15;;;2.50;;
16272;SDS011;8244;50.044;9.006;2024-02-15T11:30:52;7.00;;;2.50;;
16272;SDS011;8244;50.044;9.006;2024-02-15T11:36:03;6.43;;;2.47;;
16272;SDS011;8244;50.044;9.006;2024-02-15T11:41:11;12.27;;;2.75;;
16272;SDS011;8244;50.044;9.006;2024-02-15T11:46:21;7.20;;;2.58;;
16272;SDS011;8244;50.044;9.006;2024-02-15T11:51:32;11.27;;;3.20;;
16272;SDS011;8244;50.044;9.006;2024-02-15T11:56:51;6.78;;;2.50;;
16272;SDS011;8244;50.044;9.006;2024-02-15T12:02:07;6.30;;;2.30;;
16272;SDS011;8244;50.044;9.006;2024-02-15T12:07:28;6.88;;;2.28;;
16272;SDS011;8244;50.044;9.006;2024-02-15T12:12:51;8.80;;;2.20;;
16272;SDS011;8244;50.044;9.006;2024-02-15T12:18:14;3.55;;;1.60;;
16272;SDS011;8244;50.044;9.006;2024-02-15T12:23:34;6.10;;;1.90;;
16272;SDS011;8244;50.044;9.006;2024-02-15T12:28:42;6.15;;;2.10;;
16272;SDS011;8244;50.044;9.006;2024-02-15T12:33:43;6.05;;;1.77;;
16272;SDS011;8244;50.044;9.006;2024-02-15T12:38:49;6.65;;;2.38;;
16272;SDS011;8244;50.044;9.006;2024-02-15T12:43:59;5.90;;;2.00;;
16272;SDS011;8244;50.044;9.006;2024-02-15T12:49:07;4.43;;;1.83;;
16272;SDS011;8244;50.044;9.006;2024-02-15T12:54:14;7.10;;;2.00;;
16272;SDS011;8244;50.044;9.006;2024-02-15T12:59:21;5.30;;;1.70;;
16272;SDS011;8244;50.044;9.006;2024-02-15T13:04:24;3.85;;;1.67;;
16272;SDS011;8244;50.044;9.006;2024-02-15T13:09:28;4.88;;;1.50;;
16272;SDS011;8244;50.044;9.006;2024-02-15T13:14:30;5.68;;;1.90;;
16272;SDS011;8244;50.044;9.006;2024-02-15T13:19:35;5.53;;;1.88;;
16272;SDS011;8244;50.044;9.006;2024-02-15T13:24:38;4.05;;;1.50;;
16272;SDS011;8244;50.044;9.006;2024-02-15T13:29:40;3.78;;;1.48;;
16272;SDS011;8244;50.044;9.006;2024-02-15T13:34:42;2.72;;;1.20;;
16272;SDS011;8244;50.044;9.006;2024-02-15T13:39:47;4.35;;;0.93;;
16272;SDS011;8244;50.044;9.006;2024-02-15T13:44:49;4.20;;;1.40;;
16272;SDS011;8244;50.044;9.006;2024-02-15T13:49:52;3.95;;;1.30;;
16272;SDS011;8244;50.044;9.006;2024-02-15T13:54:55;5.05;;;2.25;;
16272;SDS011;8244;50.044;9.006;2024-02-15T13:59:57;5.57;;;2.15;;
16272;SDS011;8244;50.044;9.006;2024-02-15T14:04:59;5.93;;;2.22;;
16272;SDS011;8244;50.044;9.006;2024-02-15T14:10:03;5.30;;;1.92;;
16272;SDS011;8244;50.044;9.006;2024-02-15T14:15:06;6.20;;;2.47;;
16272;SDS011;8244;50.044;9.006;2024-02-15T14:20:09;6.82;;;2.55;;
16272;SDS011;8244;50.044;9.006;2024-02-15T14:25:15;5.43;;;2.10;;
16272;SDS011;8244;50.044;9.006;2024-02-15T14:30:17;4.53;;;1.83;;
16272;SDS011;8244;50.044;9.006;2024-02-15T14:35:37;4.07;;;2.03;;
16272;SDS011;8244;50.044;9.006;2024-02-15T14:40:41;4.35;;;1.90;;
16272;SDS011;8244;50.044;9.006;2024-02-15T14:45:46;4.63;;;2.10;;
16272;SDS011;8244;50.044;9.006;2024-02-15T14:50:48;6.60;;;2.70;;
16272;SDS011;8244;50.044;9.006;2024-02-15T14:55:52;3.55;;;1.70;;
16272;SDS011;8244;50.044;9.006;2024-02-15T15:00:54;4.13;;;1.52;;
16272;SDS011;8244;50.044;9.006;2024-02-15T15:05:57;5.22;;;1.88;;
16272;SDS011;8244;50.044;9.006;2024-02-15T15:11:18;4.57;;;1.92;;
16272;SDS011;8244;50.044;9.006;2024-02-15T15:16:38;5.53;;;2.30;;
16272;SDS011;8244;50.044;9.006;2024-02-15T15:21:40;6.90;;;1.98;;
16272;SDS011;8244;50.044;9.006;2024-02-15T15:26:44;3.53;;;1.50;;
16272;SDS011;8244;50.044;9.006;2024-02-15T15:31:46;3.60;;;1.40;;
16272;SDS011;8244;50.044;9.006;2024-02-15T15:36:48;3.45;;;1.50;;
16272;SDS011;8244;50.044;9.006;2024-02-15T15:41:53;3.17;;;1.65;;
16272;SDS011;8244;50.044;9.006;2024-02-15T15:46:54;7.43;;;2.22;;
16272;SDS011;8244;50.044;9.006;2024-02-15T15:51:57;7.43;;;2.28;;
16272;SDS011;8244;50.044;9.006;2024-02-15T15:57:00;4.43;;;2.28;;
16272;SDS011;8244;50.044;9.006;2024-02-15T16:02:04;7.03;;;3.10;;
16272;SDS011;8244;50.044;9.006;2024-02-15T16:07:06;5.43;;;2.65;;
16272;SDS011;8244;50.044;9.006;2024-02-15T16:12:10;5.93;;;2.25;;
16272;SDS011;8244;50.044;9.006;2024-02-15T16:17:13;5.55;;;3.00;;
16272;SDS011;8244;50.044;9.006;2024-02-15T16:22:16;6.38;;;3.10;;
16272;SDS011;8244;50.044;9.006;2024-02-15T16:27:21;9.15;;;3.65;;
16272;SDS011;8244;50.044;9.006;2024-02-15T16:32:23;9.00;;;4.50;;
16272;SDS011;8244;50.044;9.006;2024-02-15T16:37:26;7.90;;;3.92;;
16272;SDS011;8244;50.044;9.006;2024-02-15T16:42:36;11.13;;;4.57;;
16272;SDS011;8244;50.044;9.006;2024-02-15T16:47:43;10.50;;;4.70;;
16272;SDS011;8244;50.044;9.006;2024-02-15T16:52:56;12.93;;;4.90;;
16272;SDS011;8244;50.044;9.006;2024-02-15T16:58:03;8.48;;;3.95;;
16272;SDS011;8244;50.044;9.006;2024-02-15T17:03:07;9.05;;;3.47;;
16272;SDS011;8244;50.044;9.006;2024-02-15T17:08:13;9.90;;;3.78;;
16272;SDS011;8244;50.044;9.006;2024-02-15T17:13:17;10.60;;;3.63;;
16272;SDS011;8244;50.044;9.006;2024-02-15T17:18:19;4.03;;;2.22;;
16272;SDS011;8244;50.044;9.006;2024-02-15T17:23:21;9.82;;;2.67;;
16272;SDS011;8244;50.044;9.006;2024-02-15T17:28:25;9.48;;;3.05;;
16272;SDS011;8244;50.044;9.006;2024-02-15T17:33:26;6.07;;;2.78;;
16272;SDS011;8244;50.044;9.006;2024-02-15T17:38:28;9.57;;;3.33;;
16272;SDS011;8244;50.044;9.006;2024-02-15T17:43:31;6.57;;;2.55;;
16272;SDS011;8244;50.044;9.006;2024-02-15T17:48:33;5.20;;;2.30;;
16272;SDS011;8244;50.044;9.006;2024-02-15T17:53:35;6.30;;;2.25;;
16272;SDS011;8244;50.044;9.006;2024-02-15T17:58:38;5.82;;;2.63;;
16272;SDS011;8244;50.044;9.006;2024-02-15T18:03:40;8.52;;;2.72;;
16272;SDS011;8244;50.044;9.006;2024-02-15T18:08:41;10.32;;;3.78;;
16272;SDS011;8244;50.044;9.006;2024-02-15T18:13:44;7.03;;;3.20;;
16272;SDS011;8244;50.044;9.006;2024-02-15T18:18:46;27.42;;;14.00;;
16272;SDS011;8244;50.044;9.006;2024-02-15T18:23:48;12.18;;;4.93;;
16272;SDS011;8244;50.044;9.006;2024-02-15T18:28:51;7.18;;;3.22;;
16272;SDS011;8244;50.044;9.006;2024-02-15T18:33:54;6.55;;;2.80;;
16272;SDS011;8244;50.044;9.006;2024-02-15T18:38:56;9.57;;;2.65;;
16272;SDS011;8244;50.044;9.006;2024-02-15T18:43:59;6.78;;;2.70;;
16272;SDS011;8244;50.044;9.006;2024-02-15T18:49:01;13.38;;;5.32;;
16272;SDS011;8244;50.044;9.006;2024-02-15T18:54:03;10.57;;;5.15;;
16272;SDS011;8244;50.044;9.006;2024-02-15T18:59:07;7.30;;;3.47;;
16272;SDS011;8244;50.044;9.006;2024-02-15T19:04:08;8.32;;;3.85;;
16272;SDS011;8244;50.044;9.006;2024-02-15T19:09:11;6.72;;;2.63;;
16272;SDS011;8244;50.044;9.006;2024-02-15T19:14:14;7.22;;;2.63;;
16272;SDS011;8244;50.044;9.006;2024-02-15T19:19:17;6.78;;;2.85;;
16272;SDS011;8244;50.044;9.006;2024-02-15T19:24:19;6.25;;;2.70;;
16272;SDS011;8244;50.044;9.006;2024-02-15T19:29:22;6.38;;;3.05;;
16272;SDS011;8244;50.044;9.006;2024-02-15T19:34:24;5.57;;;3.25;;
16272;SDS011;8244;50.044;9.006;2024-02-15T19:39:27;7.28;;;2.55;;
16272;SDS011;8244;50.044;9.006;2024-02-15T19:44:30;9.15;;;3.55;;
16272;SDS011;8244;50.044;9.006;2024-02-15T19:49:33;7.00;;;2.75;;
16272;SDS011;8244;50.044;9.006;2024-02-15T19:54:35;8.52;;;3.40;;
16272;SDS011;8244;50.044;9.006;2024-02-15T19:59:38;5.95;;;2.45;;
16272;SDS011;8244;50.044;9.006;2024-02-15T20:04:39;5.75;;;2.72;;
16272;SDS011;8244;50.044;9.006;2024-02-15T20:09:41;7.25;;;2.90;;
16272;SDS011;8244;50.044;9.006;2024-02-15T20:14:44;5.15;;;2.30;;
16272;SDS011;8244;50.044;9.006;2024-02-15T20:19:46;5.82;;;2.63;;
16272;SDS011;8244;50.044;9.006;2024-02-15T20:24:49;5.43;;;2.72;;
16272;SDS011;8244;50.044;9.006;2024-02-15T20:29:52;6.65;;;2.35;;
16272;SDS011;8244;50.044;9.006;2024-02-15T20:34:55;5.78;;;2.50;;
16272;SDS011;8244;50.044;9.006;2024-02-15T20:39:59;6.28;;;2.83;;
16272;SDS011;8244;50.044;9.006;2024-02-15T20:45:02;8.88;;;2.80;;
16272;SDS011;8244;50.044;9.006;2024-02-15T20:50:05;8.80;;;2.83;;
16272;SDS011;8244;50.044;9.006;2024-02-15T20:55:08;10.23;;;2.72;;
16272;SDS011;8244;50.044;9.006;2024-02-15T21:00:13;6.05;;;2.35;;
16272;SDS011;8244;50.044;9.006;2024-02-15T21:05:15;7.40;;;2.58;;
16272;SDS011;8244;50.044;9.006;2024-02-15T21:10:18;6.38;;;2.50;;
16272;SDS011;8244;50.044;9.006;2024-02-15T21:15:21;9.93;;;2.60;;
16272;SDS011;8244;50.044;9.006;2024-02-15T21:20:24;5.45;;;2.40;;
16272;SDS011;8244;50.044;9.006;2024-02-15T21:25:31;6.90;;;2.30;;
16272;SDS011;8244;50.044;9.006;2024-02-15T21:30:34;3.88;;;2.28;;
16272;SDS011;8244;50.044;9.006;2024-02-15T21:35:36;5.03;;;2.13;;
16272;SDS011;8244;50.044;9.006;2024-02-15T21:40:37;6.00;;;2.28;;
16272;SDS011;8244;50.044;9.006;2024-02-15T21:45:40;6.78;;;1.90;;
16272;SDS011;8244;50.044;9.006;2024-02-15T21:50:43;5.97;;;1.90;;
16272;SDS011;8244;50.044;9.006;2024-02-15T21:55:44;5.07;;;2.00;;
16272;SDS011;8244;50.044;9.006;2024-02-15T22:00:47;8.77;;;2.10;;
16272;SDS011;8244;50.044;9.006;2024-02-15T22:05:49;4.60;;;2.15;;
16272;SDS011;8244;50.044;9.006;2024-02-15T22:10:51;4.32;;;2.03;;
16272;SDS011;8244;50.044;9.006;2024-02-15T22:15:54;4.55;;;1.88;;
16272;SDS011;8244;50.044;9.006;2024-02-15T22:20:56;3.58;;;2.08;;
16272;SDS011;8244;50.044;9.006;2024-02-15T22:25:58;5.75;;;2.30;;
16272;SDS011;8244;50.044;9.006;2024-02-15T22:31:01;3.47;;;2.05;;
16272;SDS011;8244;50.044;9.006;2024-02-15T22:36:03;4.88;;;2.58;;
16272;SDS011;8244;50.044;9.006;2024-02-15T22:41:05;6.07;;;2.20;;
16272;SDS011;8244;50.044;9.006;2024-02-15T22:46:10;8.15;;;2.40;;
16272;SDS011;8244;50.044;9.006;2024-02-15T22:51:12;6.45;;;2.47;;
16272;SDS011;8244;50.044;9.006;2024-02-15T22:56:14;3.95;;;1.98;;
16272;SDS011;8244;50.044;9.006;2024-02-15T23:01:17;5.60;;;2.42;;
16272;SDS011;8244;50.044;9.006;2024-02-15T23:06:18;5.68;;;2.10;;
16272;SDS011;8244;50.044;9.006;2024-02-15T23:11:20;5.85;;;2.53;;
16272;SDS011;8244;50.044;9.006;2024-02-15T23:16:23;5.03;;;2.45;;
16272;SDS011;8244;50.044;9.006;2024-02-15T23:21:25;7.15;;;2.50;;
16272;SDS011;8244;50.044;9.006;2024-02-15T23:26:26;5.30;;;2.15;;
16272;SDS011;8244;50.044;9.006;2024-02-15T23:31:29;3.47;;;1.88;;
16272;SDS011;8244;50.044;9.006;2024-02-15T23:36:31;5.90;;;2.30;;
16272;SDS011;8244;50.044;9.006;2024-02-15T23:41:51;5.78;;;2.33;;
16272;SDS011;8244;50.044;9.006;2024-02-15T23:46:54;6.30;;;2.42;;
16272;SDS011;8244;50.044;9.006;2024-02-15T23:51:55;4.00;;;2.30;;
16272;SDS011;8244;50.044;9.006;2024-02-15T23:56:57;5.07;;;2.28;;
